Thunder radar more information blitzortung!


avis per Pluja more information rain snow radar


Visita la nostra xarxa de llocs de meteo:

Template documentation
and downloads

And another site



Rain From: 15-11-2018 14:00 Until: 23:59 warning for: Rain Level: Orange info button

Pagina Historial Weather Underground text

Diari Resum Octubre 14, 2017 Unitats:  Imperial    Mètric   Tant
« Previous Dia
SegĂźent Dia »
Diari Setmana Mensual Anual Personalitzada
  Maxima: Minima: Media:
Temperatura: TemperatureC °F 15.5 °F 19 °F
Punt de rosada: DewpointC °F 14.0 °F 15.1 °F
Humitat: Humidity % 57 % 79 %
Wind Speed: WindSpeedKMH mph 0.0 mph 4.3 mph
RĂ fegues de vent: WindSpeedGustKMH mph - -
Vent:- - ESE
Pression baro: PressurehPa in 1026.0 in -
Precipitacions: 0.0 in    
Historical Graphs
 
 
Dades de taula per Octubre 14, 2017
Temps Temperatura Punt de rosada Pression baro Vent Wind Speed RĂ fegues de vent Humitat Rainfall Rate (Hourly)
TemperatureC °F DewpointC °F PressurehPa in Calm     Humidity % HourlyPrecipMM in
00:04 18.0 °F 14.9 °F 1026.0 in SW 3.7 mph 3.7 mph 82 % 0.0 in
00:09 18.0 °F 14.9 °F 1026.0 in SW 3.2 mph   82 % 0.0 in
00:14 17.9 °F 14.9 °F 1026.0 in SW 3.7 mph 3.7 mph 83 % 0.0 in
00:19 17.8 °F 14.9 °F 1026.0 in SW 2.3 mph 2.6 mph 83 % 0.0 in
00:24 17.8 °F 15.1 °F 1026.0 in SW 1.9 mph   84 % 0.0 in
00:29 17.8 °F 15.1 °F 1026.0 in SW 1.9 mph   84 % 0.0 in
00:34 17.7 °F 14.9 °F 1026.0 in SW 1.9 mph   84 % 0.0 in
00:39 17.6 °F 14.9 °F 1026.0 in Calm     84 % 0.0 in
00:44 17.6 °F 15.1 °F 1026.0 in WSW 1.9 mph   85 % 0.0 in
00:49 17.6 °F 15.1 °F 1026.0 in Calm     85 % 0.0 in
00:54 17.6 °F 15.1 °F 1026.0 in Calm     85 % 0.0 in
00:59 17.5 °F 14.9 °F 1026.0 in Calm     85 % 0.0 in
01:04 17.3 °F 14.8 °F 1026.0 in Calm     85 % 0.0 in
01:05 17.3 °F 14.8 °F 1026.0 in Calm     85 % 0.0 in
01:10 17.3 °F 14.9 °F 1026.0 in NNW 1.9 mph 2.3 mph 86 % 0.0 in
01:15 17.3 °F 14.9 °F 1026.0 in NNE 1.9 mph 1.9 mph 86 % 0.0 in
01:20 17.3 °F 14.9 °F 1026.0 in Calm     86 % 0.0 in
01:25 17.3 °F 14.9 °F 1026.0 in Calm     86 % 0.0 in
01:30 17.3 °F 14.9 °F 1026.0 in NNE 1.9 mph 1.9 mph 86 % 0.0 in
01:35 17.2 °F 14.8 °F 1026.0 in Calm     86 % 0.0 in
01:40 17.1 °F 14.7 °F 1026.0 in Calm     86 % 0.0 in
01:45 17.1 °F 14.7 °F 1026.0 in Calm     86 % 0.0 in
01:50 17.0 °F 14.7 °F 1026.0 in Calm     86 % 0.0 in
01:55 16.9 °F 14.7 °F 1026.0 in Calm     87 % 0.0 in
02:00 16.8 °F 14.6 °F 1026.0 in Calm     87 % 0.0 in
02:05 16.8 °F 14.6 °F 1026.0 in WNW 3.7 mph 3.7 mph 87 % 0.0 in
02:10 16.8 °F 14.6 °F 1026.0 in WNW 1.9 mph 1.9 mph 87 % 0.0 in
02:15 16.8 °F 14.6 °F 1026.0 in WNW 1.9 mph 1.9 mph 87 % 0.0 in
02:20 16.8 °F 14.8 °F 1026.0 in Calm     88 % 0.0 in
02:25 16.8 °F 14.8 °F 1026.0 in Calm     88 % 0.0 in
02:30 16.7 °F 14.7 °F 1026.0 in Calm     88 % 0.0 in
02:35 16.7 °F 14.7 °F 1026.0 in Calm     88 % 0.0 in
02:40 16.7 °F 14.7 °F 1026.0 in Calm     88 % 0.0 in
02:45 16.6 °F 14.6 °F 1027.0 in Calm     88 % 0.0 in
02:50 16.6 °F 14.6 °F 1027.0 in Calm     88 % 0.0 in
02:55 16.6 °F 14.6 °F 1027.0 in Calm     88 % 0.0 in
03:00 16.6 °F 14.8 °F 1026.0 in Calm     89 % 0.0 in
03:05 16.6 °F 14.8 °F 1026.0 in Calm     89 % 0.0 in
03:10 16.5 °F 14.7 °F 1026.0 in Calm     89 % 0.0 in
03:15 16.6 °F 14.8 °F 1026.0 in WNW 3.7 mph   89 % 0.0 in
03:20 16.7 °F 14.9 °F 1026.0 in Calm     89 % 0.0 in
03:25 16.7 °F 15.1 °F 1026.0 in Calm     90 % 0.0 in
03:30 16.7 °F 15.1 °F 1026.0 in Calm     90 % 0.0 in
03:40 16.7 °F 15.1 °F 1026.0 in Calm     90 % 0.0 in
03:45 16.7 °F 15.1 °F 1026.0 in Calm     90 % 0.0 in
03:50 16.6 °F 14.9 °F 1026.0 in Calm     90 % 0.0 in
03:55 16.6 °F 14.9 °F 1026.0 in Calm     90 % 0.0 in
04:00 16.7 °F 15.1 °F 1026.0 in Calm     90 % 0.0 in
04:05 16.6 °F 14.9 °F 1026.0 in Calm     90 % 0.0 in
04:10 16.6 °F 14.9 °F 1026.0 in NNE 1.9 mph 1.9 mph 90 % 0.0 in
04:15 16.3 °F 14.7 °F 1026.0 in NNE 2.6 mph 2.6 mph 90 % 0.0 in
04:20 16.3 °F 14.7 °F 1026.0 in NNE 2.3 mph 2.3 mph 90 % 0.0 in
04:25 16.4 °F 14.8 °F 1026.0 in Calm     90 % 0.0 in
04:30 16.0 °F 14.3 °F 1026.0 in West 3.7 mph 3.7 mph 90 % 0.0 in
04:35 15.8 °F 14.0 °F 1026.0 in SW 3.7 mph 3.7 mph 89 % 0.0 in
04:40 15.9 °F 14.3 °F 1026.0 in SSE 1.9 mph 1.9 mph 90 % 0.0 in
04:45 16.0 °F 14.3 °F 1026.0 in Calm     90 % 0.0 in
04:50 15.8 °F 14.2 °F 1026.0 in Calm     90 % 0.0 in
04:55 15.9 °F 14.3 °F 1026.0 in Calm     90 % 0.0 in
05:00 15.9 °F 14.3 °F 1026.0 in Calm     90 % 0.0 in
05:05 15.8 °F 14.2 °F 1026.0 in Calm     90 % 0.0 in
05:10 15.8 °F 14.2 °F 1026.0 in Calm     90 % 0.0 in
05:15 15.7 °F 14.1 °F 1026.0 in Calm     90 % 0.0 in
05:20 15.7 °F 14.2 °F 1026.0 in Calm     91 % 0.0 in
05:22 15.7 °F 14.2 °F 1026.0 in Calm     91 % 0.0 in
05:27 15.6 °F 14.1 °F 1026.0 in Calm     91 % 0.0 in
05:32 15.6 °F 14.1 °F 1026.0 in Calm     91 % 0.0 in
05:37 15.7 °F 14.2 °F 1026.0 in Calm     91 % 0.0 in
05:42 15.7 °F 14.2 °F 1026.0 in Calm     91 % 0.0 in
05:47 15.6 °F 14.1 °F 1026.0 in Calm     91 % 0.0 in
05:52 15.6 °F 14.1 °F 1026.0 in South 1.9 mph 1.9 mph 91 % 0.0 in
05:57 15.6 °F 14.1 °F 1026.0 in Calm     91 % 0.0 in
06:02 15.6 °F 14.1 °F 1026.0 in Calm     91 % 0.0 in
06:07 15.6 °F 14.1 °F 1026.0 in Calm     91 % 0.0 in
06:13 15.6 °F 14.3 °F 1026.0 in Calm     92 % 0.0 in
06:18 15.6 °F 14.3 °F 1026.0 in Calm     92 % 0.0 in
06:23 15.7 °F 14.4 °F 1026.0 in Calm     92 % 0.0 in
06:28 15.8 °F 14.5 °F 1026.0 in Calm     92 % 0.0 in
06:33 15.8 °F 14.5 °F 1026.0 in Calm     92 % 0.0 in
06:38 15.8 °F 14.5 °F 1026.0 in Calm     92 % 0.0 in
06:43 15.9 °F 14.6 °F 1026.0 in Calm     92 % 0.0 in
06:48 15.9 °F 14.6 °F 1026.0 in Calm     92 % 0.0 in
06:53 16.0 °F 14.9 °F 1026.0 in Calm     93 % 0.0 in
06:58 16.0 °F 14.9 °F 1027.0 in Calm     93 % 0.0 in
07:03 16.0 °F 14.9 °F 1027.0 in ENE 2.3 mph   93 % 0.0 in
07:08 16.0 °F 14.7 °F 1027.0 in NE 3.7 mph 3.7 mph 92 % 0.0 in
07:13 16.0 °F 14.7 °F 1026.0 in Calm     92 % 0.0 in
07:18 16.0 °F 14.7 °F 1026.0 in NE 2.3 mph   92 % 0.0 in
07:23 15.9 °F 14.6 °F 1026.0 in NE 1.9 mph   92 % 0.0 in
07:28 15.9 °F 14.6 °F 1026.0 in Calm     92 % 0.0 in
07:33 15.8 °F 14.5 °F 1026.0 in Calm     92 % 0.0 in
07:38 15.7 °F 14.4 °F 1026.0 in SSE 1.9 mph   92 % 0.0 in
07:43 15.6 °F 14.3 °F 1027.0 in Calm     92 % 0.0 in
07:48 15.6 °F 14.3 °F 1027.0 in Calm     92 % 0.0 in
07:53 15.6 °F 14.3 °F 1027.0 in Calm     92 % 0.0 in
07:58 15.5 °F 14.2 °F 1026.0 in Calm     92 % 0.0 in
08:03 15.5 °F 14.2 °F 1026.0 in Calm     92 % 0.0 in
08:08 15.5 °F 14.2 °F 1026.0 in Calm     92 % 0.0 in
08:13 15.6 °F 14.3 °F 1027.0 in Calm     92 % 0.0 in
08:18 15.6 °F 14.3 °F 1027.0 in Calm     92 % 0.0 in
08:23 15.6 °F 14.3 °F 1027.0 in Calm     92 % 0.0 in
08:28 15.6 °F 14.3 °F 1027.0 in Calm     92 % 0.0 in
08:33 15.7 °F 14.4 °F 1027.0 in Calm     92 % 0.0 in
08:38 15.9 °F 14.6 °F 1027.0 in NNE 5.8 mph 5.8 mph 92 % 0.0 in
08:43 16.0 °F 14.7 °F 1027.0 in NNW 1.9 mph 2.3 mph 92 % 0.0 in
08:48 16.0 °F 14.7 °F 1027.0 in Calm     92 % 0.0 in
08:53 16.0 °F 14.7 °F 1027.0 in Calm     92 % 0.0 in
08:58 16.0 °F 14.6 °F 1027.0 in WSW 1.9 mph 1.9 mph 91 % 0.0 in
09:03 16.0 °F 14.7 °F 1027.0 in Calm     92 % 0.0 in
09:08 16.1 °F 14.8 °F 1027.0 in NNE 5.6 mph 5.6 mph 92 % 0.0 in
09:13 16.2 °F 14.9 °F 1027.0 in ENE 5.6 mph 5.6 mph 92 % 0.0 in
09:18 16.3 °F 14.8 °F 1027.0 in ENE 5.6 mph 5.6 mph 91 % 0.0 in
09:23 16.4 °F 14.9 °F 1027.0 in Calm     91 % 0.0 in
09:28 16.4 °F 14.9 °F 1028.0 in SE 3.7 mph 3.7 mph 91 % 0.0 in
09:33 16.6 °F 15.1 °F 1028.0 in ENE 3.7 mph 3.7 mph 91 % 0.0 in
09:38 16.6 °F 15.1 °F 1028.0 in ENE 3.7 mph 3.7 mph 91 % 0.0 in
09:43 16.7 °F 15.1 °F 1027.0 in East 3.2 mph   90 % 0.0 in
09:48 16.8 °F 15.2 °F 1027.0 in East 1.9 mph 1.9 mph 90 % 0.0 in
09:53 17.0 °F 15.3 °F 1027.0 in SW 3.7 mph 3.7 mph 90 % 0.0 in
09:58 17.1 °F 15.4 °F 1028.0 in ENE 3.7 mph 3.7 mph 90 % 0.0 in
10:03 17.3 °F 15.4 °F 1028.0 in Calm     89 % 0.0 in
10:18 17.8 °F 15.8 °F 1028.0 in ENE 3.7 mph 3.7 mph 88 % 0.0 in
10:23 17.9 °F 15.9 °F 1028.0 in ENE 5.6 mph 5.6 mph 88 % 0.0 in
10:28 18.1 °F 15.9 °F 1028.0 in ESE 5.6 mph 5.6 mph 87 % 0.0 in
10:33 18.2 °F 15.8 °F 1028.0 in East 5.6 mph 5.6 mph 86 % 0.0 in
10:38 18.3 °F 15.9 °F 1028.0 in NE 7.4 mph 7.4 mph 86 % 0.0 in
10:48 18.5 °F 15.9 °F 1027.0 in NNE 7.4 mph 7.4 mph 85 % 0.0 in
10:53 18.7 °F 15.9 °F 1027.0 in NNE 5.6 mph 5.6 mph 84 % 0.0 in
10:58 18.9 °F 16.1 °F 1028.0 in ENE 5.6 mph 5.6 mph 84 % 0.0 in
11:03 19.0 °F 16.1 °F 1028.0 in East 5.6 mph 5.6 mph 83 % 0.0 in
11:08 19.1 °F 16.2 °F 1028.0 in WNW 3.7 mph 3.7 mph 83 % 0.0 in
11:13 19.3 °F 16.2 °F 1028.0 in NE 5.6 mph 5.6 mph 82 % 0.0 in
11:18 19.5 °F 16.3 °F 1028.0 in NNE 5.8 mph 5.8 mph 82 % 0.0 in
11:23 19.6 °F 16.2 °F 1028.0 in NNE 5.6 mph 5.6 mph 81 % 0.0 in
11:28 19.9 °F 16.6 °F 1028.0 in ENE 2.6 mph 2.6 mph 81 % 0.0 in
11:33 20.1 °F 16.6 °F 1028.0 in ENE 3.7 mph 3.7 mph 80 % 0.0 in
11:38 20.2 °F 16.4 °F 1028.0 in East 4.7 mph 4.7 mph 79 % 0.0 in
11:43 20.3 °F 16.3 °F 1028.0 in East 6.4 mph 6.4 mph 78 % 0.0 in
11:48 20.4 °F 16.4 °F 1028.0 in NNE 7.4 mph 7.4 mph 78 % 0.0 in
11:53 20.5 °F 16.6 °F 1028.0 in ENE 9.3 mph 9.3 mph 78 % 0.0 in
11:58 20.7 °F 16.5 °F 1028.0 in ESE 11.1 mph 11.1 mph 77 % 0.0 in
12:03 20.8 °F 16.6 °F 1028.0 in East 5.6 mph 5.6 mph 77 % 0.0 in
12:08 20.9 °F 16.5 °F 1028.0 in ENE 5.6 mph 5.6 mph 76 % 0.0 in
12:13 21.1 °F 16.5 °F 1028.0 in ENE 7.4 mph 7.4 mph 75 % 0.0 in
12:18 21.3 °F 16.5 °F 1028.0 in ESE 3.9 mph 3.9 mph 74 % 0.0 in
12:23 21.6 °F 17.0 °F 1028.0 in NNE 5.8 mph 5.8 mph 75 % 0.0 in
12:28 21.8 °F 16.9 °F 1028.0 in SE 7.4 mph 7.4 mph 74 % 0.0 in
12:33 21.9 °F 16.8 °F 1028.0 in SE 9.3 mph 9.3 mph 73 % 0.0 in
12:38 21.9 °F 16.8 °F 1028.0 in ESE 4.2 mph 4.2 mph 73 % 0.0 in
12:43 22.0 °F 16.5 °F 1028.0 in ENE 7.4 mph 7.4 mph 71 % 0.0 in
12:48 22.1 °F 16.4 °F 1028.0 in ESE 7.4 mph 7.4 mph 70 % 0.0 in
12:53 22.2 °F 16.4 °F 1028.0 in ESE 11.1 mph 11.1 mph 70 % 0.0 in
12:58 22.4 °F 16.4 °F 1028.0 in NNE 9.3 mph 9.3 mph 69 % 0.0 in
13:03 23.3 °F 17.3 °F 1028.0 in ESE 6.1 mph 6.1 mph 69 % 0.0 in
13:08 23.1 °F 16.6 °F 1028.0 in ENE 7.4 mph 7.4 mph 67 % 0.0 in
13:13 23.1 °F 16.2 °F 1028.0 in SE 11.1 mph 11.1 mph 65 % 0.0 in
13:18 22.8 °F 16.1 °F 1028.0 in ESE 9.3 mph 9.3 mph 66 % 0.0 in
13:23 22.8 °F 16.1 °F 1028.0 in ESE 3.7 mph 3.7 mph 66 % 0.0 in
13:28 23.0 °F 16.3 °F 1028.0 in ENE 8.7 mph 8.7 mph 66 % 0.0 in
13:33 22.9 °F 15.9 °F 1028.0 in East 13.0 mph 13.0 mph 65 % 0.0 in
13:38 22.8 °F 16.1 °F 1028.0 in East 9.3 mph 9.3 mph 66 % 0.0 in
13:43 23.0 °F 16.3 °F 1028.0 in ESE 5.6 mph 5.6 mph 66 % 0.0 in
13:48 22.9 °F 15.9 °F 1028.0 in ESE 6.9 mph 6.9 mph 65 % 0.0 in
13:53 22.8 °F 16.1 °F 1028.0 in ESE 9.3 mph 9.3 mph 66 % 0.0 in
13:58 22.7 °F 15.8 °F 1028.0 in SE 9.3 mph 9.3 mph 65 % 0.0 in
14:03 22.9 °F 16.2 °F 1028.0 in ESE 6.4 mph 6.4 mph 66 % 0.0 in
14:08 22.9 °F 16.2 °F 1028.0 in ESE 5.6 mph 5.6 mph 66 % 0.0 in
14:13 22.9 °F 15.9 °F 1028.0 in ESE 9.3 mph 9.3 mph 65 % 0.0 in
14:18 22.8 °F 15.9 °F 1028.0 in ESE 7.4 mph 7.4 mph 65 % 0.0 in
14:23 22.7 °F 15.6 °F 1028.0 in ESE 9.3 mph 9.3 mph 64 % 0.0 in
14:28 23.0 °F 16.1 °F 1028.0 in ENE 7.9 mph 7.9 mph 65 % 0.0 in
14:33 23.0 °F 16.1 °F 1028.0 in ESE 9.3 mph 9.3 mph 65 % 0.0 in
14:38 23.1 °F 15.9 °F 1028.0 in ENE 9.3 mph 9.3 mph 64 % 0.0 in
14:43 23.2 °F 16.0 °F 1028.0 in SE 16.7 mph 16.7 mph 64 % 0.0 in
14:48 23.0 °F 15.8 °F 1028.0 in East 9.3 mph 9.3 mph 64 % 0.0 in
14:53 23.1 °F 15.9 °F 1028.0 in East 9.3 mph 9.3 mph 64 % 0.0 in
14:58 23.0 °F 15.8 °F 1027.0 in ESE 7.6 mph 7.6 mph 64 % 0.0 in
15:03 22.9 °F 15.7 °F 1027.0 in ESE 11.1 mph 11.1 mph 64 % 0.0 in
15:08 23.0 °F 15.8 °F 1027.0 in ENE 13.0 mph 13.0 mph 64 % 0.0 in
15:13 23.1 °F 16.2 °F 1027.0 in ENE 9.3 mph 9.3 mph 65 % 0.0 in
15:18 23.1 °F 15.9 °F 1027.0 in ESE 10.3 mph 10.3 mph 64 % 0.0 in
15:23 23.2 °F 16.3 °F 1027.0 in East 14.8 mph 14.8 mph 65 % 0.0 in
15:28 23.2 °F 16.0 °F 1027.0 in ESE 9.3 mph 9.3 mph 64 % 0.0 in
15:33 23.4 °F 16.2 °F 1027.0 in NNE 9.5 mph 9.5 mph 64 % 0.0 in
15:38 23.7 °F 16.5 °F 1027.0 in East 11.1 mph 11.1 mph 64 % 0.0 in
15:43 23.8 °F 16.6 °F 1027.0 in NNE 13.0 mph 13.0 mph 64 % 0.0 in
15:44 23.6 °F 16.2 °F 1027.0 in NNE 9.3 mph 9.3 mph 63 % 0.0 in
15:49 23.7 °F 16.2 °F 1027.0 in ESE 7.4 mph 7.4 mph 63 % 0.0 in
15:54 23.8 °F 15.8 °F 1027.0 in East 13.0 mph 13.0 mph 61 % 0.0 in
15:59 24.2 °F 15.9 °F 1027.0 in ESE 7.4 mph 7.4 mph 60 % 0.0 in
16:04 24.1 °F 15.6 °F 1027.0 in ESE 13.0 mph 13.0 mph 59 % 0.0 in
16:09 24.0 °F 15.2 °F 1027.0 in SE 13.0 mph 13.0 mph 58 % 0.0 in
16:14 24.3 °F 15.2 °F 1027.0 in SE 7.4 mph 7.4 mph 57 % 0.0 in
16:19 24.3 °F 15.2 °F 1027.0 in SSE 9.3 mph 9.3 mph 57 % 0.0 in
16:24 24.2 °F 15.2 °F 1027.0 in East 11.1 mph 11.1 mph 57 % 0.0 in
16:29 24.3 °F 15.2 °F 1027.0 in East 13.0 mph 13.0 mph 57 % 0.0 in
16:34 24.1 °F 15.6 °F 1027.0 in South 5.6 mph 5.6 mph 59 % 0.0 in
16:39 24.0 °F 15.2 °F 1027.0 in SE 13.0 mph 13.0 mph 58 % 0.0 in
16:44 24.0 °F 15.5 °F 1027.0 in East 11.1 mph 11.1 mph 59 % 0.0 in
16:49 23.7 °F 15.5 °F 1027.0 in SE 11.1 mph 11.1 mph 60 % 0.0 in
16:54 23.7 °F 15.5 °F 1027.0 in ESE 10.3 mph 10.3 mph 60 % 0.0 in
16:59 23.7 °F 15.5 °F 1026.0 in SSW 9.3 mph 9.3 mph 60 % 0.0 in
17:04 23.8 °F 15.6 °F 1026.0 in ESE 13.0 mph 13.0 mph 60 % 0.0 in
17:09 23.3 °F 15.1 °F 1026.0 in ESE 13.0 mph 13.0 mph 60 % 0.0 in
17:14 23.5 °F 15.6 °F 1026.0 in SE 5.6 mph 5.6 mph 61 % 0.0 in
17:19 23.5 °F 15.6 °F 1026.0 in SSE 13.0 mph 13.0 mph 61 % 0.0 in
17:24 23.3 °F 15.3 °F 1026.0 in SSE 9.3 mph 9.3 mph 61 % 0.0 in
17:29 23.0 °F 15.1 °F 1026.0 in SSE 11.1 mph 11.1 mph 61 % 0.0 in
17:34 23.2 °F 15.3 °F 1026.0 in ESE 11.9 mph 11.9 mph 61 % 0.0 in
17:39 23.0 °F 15.1 °F 1026.0 in East 9.0 mph 9.0 mph 61 % 0.0 in
17:44 23.1 °F 15.2 °F 1026.0 in SSE 9.3 mph 9.3 mph 61 % 0.0 in
17:49 23.0 °F 15.1 °F 1026.0 in South 9.3 mph 9.3 mph 61 % 0.0 in
17:54 22.8 °F 15.1 °F 1026.0 in SE 13.0 mph 13.0 mph 62 % 0.0 in
17:59 22.6 °F 15.2 °F 1026.0 in ENE 13.0 mph 13.0 mph 63 % 0.0 in
18:04 22.5 °F 15.1 °F 1026.0 in ENE 11.1 mph 11.1 mph 63 % 0.0 in
18:09 22.3 °F 14.9 °F 1026.0 in SE 13.0 mph 13.0 mph 63 % 0.0 in
18:14 22.1 °F 14.9 °F 1027.0 in ESE 10.3 mph 10.3 mph 64 % 0.0 in
18:19 22.0 °F 15.1 °F 1027.0 in ENE 11.1 mph 11.1 mph 65 % 0.0 in
18:24 21.9 °F 15.3 °F 1027.0 in ESE 9.3 mph 9.3 mph 66 % 0.0 in
18:29 21.8 °F 15.2 °F 1026.0 in East 7.9 mph 7.9 mph 66 % 0.0 in
18:34 21.7 °F 15.1 °F 1026.0 in East 14.8 mph 14.8 mph 66 % 0.0 in
18:39 21.6 °F 15.0 °F 1026.0 in SE 9.3 mph 9.3 mph 66 % 0.0 in
18:44 21.5 °F 15.1 °F 1026.0 in ESE 5.6 mph 5.6 mph 67 % 0.0 in
18:49 21.4 °F 15.0 °F 1026.0 in NE 9.3 mph 9.3 mph 67 % 0.0 in
18:54 21.2 °F 14.8 °F 1026.0 in ENE 9.3 mph 9.3 mph 67 % 0.0 in
18:59 21.1 °F 14.9 °F 1026.0 in ESE 7.4 mph 7.4 mph 68 % 0.0 in
19:04 21.0 °F 14.9 °F 1026.0 in ESE 11.1 mph 11.1 mph 68 % 0.0 in
19:09 20.8 °F 14.9 °F 1026.0 in ESE 7.4 mph 7.4 mph 69 % 0.0 in
19:14 20.7 °F 15.1 °F 1027.0 in ESE 7.4 mph 7.4 mph 70 % 0.0 in
19:19 20.6 °F 14.9 °F 1027.0 in SE 11.1 mph 11.1 mph 70 % 0.0 in
19:24 20.5 °F 15.1 °F 1027.0 in East 6.9 mph 6.9 mph 71 % 0.0 in
19:29 20.4 °F 14.9 °F 1027.0 in ESE 11.1 mph 11.1 mph 71 % 0.0 in
19:34 20.4 °F 14.9 °F 1027.0 in ESE 8.7 mph 8.7 mph 71 % 0.0 in
19:39 20.3 °F 15.1 °F 1027.0 in ESE 9.3 mph 9.3 mph 72 % 0.0 in
19:44 20.2 °F 15.0 °F 1027.0 in East 5.6 mph 5.6 mph 72 % 0.0 in
19:49 20.2 °F 15.2 °F 1027.0 in ESE 9.0 mph 9.0 mph 73 % 0.0 in
19:54 20.1 °F 15.1 °F 1027.0 in NE 7.4 mph 7.4 mph 73 % 0.0 in
19:59 20.0 °F 15.0 °F 1027.0 in ESE 8.7 mph 8.7 mph 73 % 0.0 in
20:04 20.0 °F 15.2 °F 1027.0 in ESE 7.4 mph 7.4 mph 74 % 0.0 in
20:09 19.9 °F 15.3 °F 1027.0 in ENE 7.4 mph 7.4 mph 75 % 0.0 in
20:14 19.8 °F 15.2 °F 1027.0 in ENE 3.9 mph 3.9 mph 75 % 0.0 in
20:19 19.8 °F 15.2 °F 1027.0 in ENE 3.7 mph 3.7 mph 75 % 0.0 in
20:24 19.7 °F 15.3 °F 1027.0 in ESE 4.7 mph 4.7 mph 76 % 0.0 in
20:29 19.6 °F 15.3 °F 1028.0 in East 4.2 mph 4.2 mph 76 % 0.0 in
20:35 19.6 °F 15.3 °F 1028.0 in East 5.6 mph 5.6 mph 76 % 0.0 in
20:40 19.5 °F 15.2 °F 1028.0 in NNE 5.6 mph 5.6 mph 76 % 0.0 in
20:45 19.5 °F 15.2 °F 1027.0 in ENE 5.6 mph 5.6 mph 76 % 0.0 in
20:50 19.4 °F 15.3 °F 1027.0 in NNE 3.7 mph 3.7 mph 77 % 0.0 in
20:55 19.3 °F 15.2 °F 1027.0 in NNE 3.7 mph 3.7 mph 77 % 0.0 in
21:00 19.3 °F 15.2 °F 1028.0 in NE 2.6 mph 2.6 mph 77 % 0.0 in
21:05 19.3 °F 15.2 °F 1028.0 in NNE 5.0 mph 5.0 mph 77 % 0.0 in
21:10 19.2 °F 15.1 °F 1028.0 in NE 4.7 mph 4.7 mph 77 % 0.0 in
21:15 19.2 °F 15.1 °F 1028.0 in NE 3.9 mph 4.2 mph 77 % 0.0 in
21:20 19.1 °F 14.9 °F 1028.0 in NNE 3.7 mph 3.7 mph 77 % 0.0 in
21:25 19.0 °F 14.9 °F 1028.0 in North 3.7 mph 3.7 mph 77 % 0.0 in
21:30 18.9 °F 15.0 °F 1027.0 in NE 3.7 mph 3.7 mph 78 % 0.0 in
21:35 18.8 °F 14.9 °F 1027.0 in NNE 2.6 mph 2.6 mph 78 % 0.0 in
21:40 18.7 °F 14.8 °F 1027.0 in NNE 2.3 mph 2.3 mph 78 % 0.0 in
21:45 18.6 °F 14.7 °F 1028.0 in ENE 1.9 mph   78 % 0.0 in
21:50 18.6 °F 14.9 °F 1028.0 in NNE 1.9 mph 1.9 mph 79 % 0.0 in
21:55 18.5 °F 14.8 °F 1028.0 in Calm   1.9 mph 79 % 0.0 in
22:00 18.5 °F 14.8 °F 1028.0 in NNE 1.9 mph 2.3 mph 79 % 0.0 in
22:05 18.5 °F 14.8 °F 1028.0 in Calm     79 % 0.0 in
22:10 18.4 °F 14.7 °F 1028.0 in Calm     79 % 0.0 in
22:15 18.4 °F 14.7 °F 1028.0 in Calm     79 % 0.0 in
22:20 18.4 °F 14.7 °F 1028.0 in Calm     79 % 0.0 in
22:25 18.4 °F 14.9 °F 1028.0 in Calm     80 % 0.0 in
22:30 18.4 °F 14.9 °F 1028.0 in Calm     80 % 0.0 in
22:35 18.3 °F 14.8 °F 1028.0 in Calm     80 % 0.0 in
22:40 18.3 °F 14.8 °F 1028.0 in Calm     80 % 0.0 in
22:45 18.2 °F 14.7 °F 1028.0 in Calm     80 % 0.0 in
22:50 18.2 °F 14.7 °F 1028.0 in Calm     80 % 0.0 in
22:55 18.2 °F 14.7 °F 1028.0 in Calm     80 % 0.0 in
23:00 18.1 °F 14.6 °F 1028.0 in Calm     80 % 0.0 in
23:05 18.1 °F 14.6 °F 1028.0 in Calm     80 % 0.0 in
23:10 18.1 °F 14.6 °F 1028.0 in Calm     80 % 0.0 in
23:15 18.0 °F 14.7 °F 1028.0 in Calm     81 % 0.0 in
23:20 18.0 °F 14.7 °F 1028.0 in Calm     81 % 0.0 in
23:25 18.0 °F 14.7 °F 1028.0 in Calm     81 % 0.0 in
23:30 18.0 °F 14.7 °F 1028.0 in Calm     81 % 0.0 in
23:35 18.0 °F 14.7 °F 1028.0 in Calm     81 % 0.0 in
23:40 18.0 °F 14.9 °F 1028.0 in Calm     82 % 0.0 in
23:45 17.8 °F 14.7 °F 1028.0 in Calm     82 % 0.0 in
23:50 17.8 °F 14.7 °F 1028.0 in Calm     82 % 0.0 in
23:55 17.7 °F 14.6 °F 1028.0 in Calm     82 % 0.0 in
Meteo Sesrovires
Elogis d' Weather Underground - 1.75 mb

Guio original per  Jim McMurry - jmcmurry@mwt.net Adaptat per a la plantilla per  Wim van der Kuil - Leuven-Template.eu

Trobareu la nostra informacio del temps tambe a:

Weather Underground

AWEKAS